createdAt,value
2018-11-07T00:00:33.971Z,92.50
2018-11-07T00:01:33.906Z,57.00
2018-11-07T00:02:33.866Z,78.20
2018-11-07T00:03:33.829Z,61.30
2018-11-07T00:04:33.796Z,87.20
2018-11-07T00:05:33.774Z,88.50
2018-11-07T00:06:33.698Z,104.40
2018-11-07T00:07:33.659Z,84.30
2018-11-07T00:08:33.748Z,104.20
2018-11-07T00:09:33.578Z,76.60
2018-11-07T00:10:33.531Z,98.00
2018-11-07T00:11:33.487Z,86.80
2018-11-07T00:12:33.448Z,61.60
2018-11-07T00:13:33.426Z,89.50
2018-11-07T00:14:33.361Z,63.90
2018-11-07T00:15:33.325Z,65.80
2018-11-07T00:16:33.305Z,79.00
2018-11-07T00:17:33.257Z,79.90
2018-11-07T00:18:33.193Z,96.80
2018-11-07T00:19:33.222Z,84.40
2018-11-07T00:20:33.138Z,88.70
2018-11-07T00:21:33.075Z,83.60
2018-11-07T00:22:33.067Z,91.50
2018-11-07T00:23:33.006Z,78.10
2018-11-07T00:24:32.972Z,84.10
2018-11-07T00:25:32.911Z,67.80
2018-11-07T00:26:32.985Z,54.10
2018-11-07T00:27:32.834Z,57.50
2018-11-07T00:28:32.820Z,78.00
2018-11-07T00:29:32.744Z,66.50
2018-11-07T00:30:32.726Z,69.40
2018-11-07T00:31:32.682Z,70.10
2018-11-07T00:32:32.628Z,62.70
2018-11-07T00:33:32.616Z,72.90
2018-11-07T00:34:32.546Z,65.70
2018-11-07T00:35:32.520Z,54.80
2018-11-07T00:36:32.460Z,58.40
2018-11-07T00:37:32.418Z,65.80
2018-11-07T00:38:32.378Z,66.00
2018-11-07T00:39:32.329Z,90.20
2018-11-07T00:40:32.299Z,60.90
2018-11-07T00:41:32.262Z,57.50
2018-11-07T00:42:32.213Z,69.90
2018-11-07T00:43:32.168Z,77.70
2018-11-07T00:44:32.136Z,55.80
2018-11-07T00:45:32.093Z,85.10
2018-11-07T00:46:32.050Z,86.30
2018-11-07T00:47:32.009Z,82.10
2018-11-07T00:48:31.982Z,66.30
2018-11-07T00:49:31.937Z,66.80
2018-11-07T00:50:31.876Z,59.90
2018-11-07T00:51:31.852Z,50.00
2018-11-07T00:52:31.822Z,48.40
2018-11-07T00:53:31.760Z,54.00
2018-11-07T00:54:31.724Z,52.60
2018-11-07T00:55:31.679Z,57.50
2018-11-07T00:56:31.653Z,64.70
2018-11-07T00:57:31.619Z,64.50
2018-11-07T00:58:31.549Z,59.90
2018-11-07T00:59:31.528Z,51.50
2018-11-07T01:00:31.474Z,57.80
2018-11-07T01:01:31.438Z,67.00
2018-11-07T01:02:31.408Z,71.70
2018-11-07T01:03:31.345Z,59.90
2018-11-07T01:04:31.291Z,73.60
2018-11-07T01:05:31.258Z,82.60
2018-11-07T01:06:31.229Z,56.20
2018-11-07T01:07:31.186Z,57.40
2018-11-07T01:08:31.142Z,57.30
2018-11-07T01:09:31.111Z,79.70
2018-11-07T01:10:31.068Z,84.80
2018-11-07T01:11:31.010Z,83.80
2018-11-07T01:12:30.973Z,64.60
2018-11-07T01:13:30.933Z,61.20
2018-11-07T01:14:30.890Z,81.30
2018-11-07T01:15:30.842Z,73.10
2018-11-07T01:16:30.870Z,65.40
2018-11-07T01:17:30.771Z,51.50
2018-11-07T01:18:30.725Z,51.60
2018-11-07T01:19:30.690Z,47.00
2018-11-07T01:20:30.658Z,51.50
2018-11-07T01:21:30.694Z,47.00
2018-11-07T01:22:30.551Z,45.10
2018-11-07T01:23:30.524Z,43.80
2018-11-07T01:24:30.469Z,73.50
2018-11-07T01:25:30.454Z,64.50
2018-11-07T01:26:30.401Z,54.90
2018-11-07T01:27:30.354Z,61.80
2018-11-07T01:28:30.304Z,109.90
2018-11-07T01:29:30.268Z,111.40
2018-11-07T01:30:30.229Z,91.80
2018-11-07T01:31:30.180Z,123.40
2018-11-07T01:32:30.148Z,90.20
2018-11-07T01:33:30.103Z,66.30
2018-11-07T01:34:30.071Z,84.80
2018-11-07T01:35:30.042Z,64.20
2018-11-07T01:36:29.977Z,60.90
2018-11-07T01:37:29.944Z,57.00
2018-11-07T01:38:29.908Z,54.40
2018-11-07T01:39:29.853Z,68.30
2018-11-07T01:40:29.817Z,72.90
2018-11-07T01:41:29.784Z,61.80
2018-11-07T01:42:29.734Z,113.00
2018-11-07T01:43:29.700Z,78.90
2018-11-07T01:44:29.693Z,67.90
2018-11-07T01:45:29.607Z,68.20
2018-11-07T01:46:29.561Z,66.50
2018-11-07T01:47:29.521Z,78.70
2018-11-07T01:48:29.492Z,79.10
2018-11-07T01:49:29.445Z,72.00
2018-11-07T01:50:29.416Z,104.00
2018-11-07T01:51:29.384Z,76.80
2018-11-07T01:52:29.326Z,74.90
2018-11-07T01:53:29.278Z,91.60
2018-11-07T01:54:29.226Z,107.70
2018-11-07T01:55:29.216Z,84.60
2018-11-07T01:56:29.149Z,81.20
2018-11-07T01:57:29.102Z,94.00
2018-11-07T01:58:29.072Z,108.40
2018-11-07T01:59:29.061Z,120.00
2018-11-07T02:00:28.993Z,88.90
2018-11-07T02:01:28.939Z,92.40
2018-11-07T02:02:28.916Z,99.80
2018-11-07T02:03:28.864Z,102.70
2018-11-07T02:04:28.841Z,121.80
2018-11-07T02:05:28.781Z,97.90
2018-11-07T02:06:28.744Z,80.00
2018-11-07T02:07:28.714Z,104.50
2018-11-07T02:08:28.704Z,86.90
2018-11-07T02:09:28.648Z,87.10
2018-11-07T02:10:28.580Z,101.10
2018-11-07T02:11:28.545Z,76.60
2018-11-07T02:12:28.492Z,106.20
2018-11-07T02:13:28.441Z,98.60
2018-11-07T02:14:28.400Z,124.30
2018-11-07T02:15:28.369Z,77.50
2018-11-07T02:16:28.330Z,112.80
2018-11-07T02:17:28.286Z,117.80
2018-11-07T02:18:28.338Z,110.20
2018-11-07T02:19:28.206Z,98.20
2018-11-07T02:20:28.154Z,107.70
2018-11-07T02:21:28.121Z,103.00
2018-11-07T02:22:28.070Z,125.80
2018-11-07T02:23:28.039Z,127.00
2018-11-07T02:24:28.002Z,133.60
2018-11-07T02:25:27.955Z,100.20
2018-11-07T02:26:27.972Z,100.90
2018-11-07T02:27:27.884Z,95.10
2018-11-07T02:28:27.819Z,77.70
2018-11-07T02:29:27.788Z,80.20
2018-11-07T02:30:27.749Z,83.40
2018-11-07T02:31:27.706Z,87.90
2018-11-07T02:32:27.937Z,83.90
2018-11-07T02:33:27.629Z,88.30
2018-11-07T02:34:27.605Z,87.10
2018-11-07T02:35:27.547Z,88.80
2018-11-07T02:36:27.517Z,87.80
2018-11-07T02:37:27.468Z,87.60
2018-11-07T02:38:27.418Z,87.60
2018-11-07T02:39:27.378Z,89.60
2018-11-07T02:40:27.332Z,91.00
2018-11-07T02:41:27.288Z,94.90
2018-11-07T02:42:27.252Z,89.40
2018-11-07T02:43:27.218Z,82.10
2018-11-07T02:44:27.170Z,82.90
2018-11-07T02:45:27.134Z,108.50
2018-11-07T02:46:27.079Z,96.70
2018-11-07T02:47:27.031Z,82.70
2018-11-07T02:48:27.012Z,79.40
2018-11-07T02:49:26.952Z,119.60
2018-11-07T02:50:26.946Z,110.70
2018-11-07T02:51:26.870Z,90.80
2018-11-07T02:52:26.845Z,92.20
2018-11-07T02:53:26.890Z,83.70
2018-11-07T02:54:26.760Z,120.80
2018-11-07T02:55:26.709Z,77.00
2018-11-07T02:56:26.692Z,124.90
2018-11-07T02:57:26.638Z,103.10
2018-11-07T02:58:26.589Z,95.00
2018-11-07T02:59:26.568Z,100.30
2018-11-07T03:00:26.545Z,88.10
2018-11-07T03:01:26.558Z,138.80
2018-11-07T03:02:26.426Z,116.00
2018-11-07T03:03:26.412Z,112.30
2018-11-07T03:04:26.368Z,145.30
2018-11-07T03:05:26.308Z,84.20
2018-11-07T03:06:26.258Z,78.40
2018-11-07T03:07:26.243Z,85.30
2018-11-07T03:08:26.193Z,79.50
2018-11-07T03:09:26.135Z,88.50
2018-11-07T03:10:26.132Z,76.80
2018-11-07T03:11:26.066Z,72.30
2018-11-07T03:12:26.011Z,76.70
2018-11-07T03:13:25.985Z,74.20
2018-11-07T03:14:25.940Z,79.50
2018-11-07T03:15:25.888Z,77.00
2018-11-07T03:16:25.860Z,76.60
2018-11-07T03:17:25.824Z,78.50
2018-11-07T03:18:25.777Z,81.00
2018-11-07T03:19:25.737Z,74.80
2018-11-07T03:20:25.693Z,78.70
2018-11-07T03:21:25.658Z,77.70
2018-11-07T03:22:25.619Z,104.10
2018-11-07T03:23:25.577Z,92.80
2018-11-07T03:24:25.529Z,74.20
2018-11-07T03:25:25.479Z,137.20
2018-11-07T03:26:25.445Z,88.60
2018-11-07T03:27:25.421Z,118.10
2018-11-07T03:28:25.367Z,114.50
2018-11-07T03:29:25.323Z,117.20
2018-11-07T03:30:25.283Z,113.70
2018-11-07T03:31:25.263Z,98.60
2018-11-07T03:32:25.208Z,100.00
2018-11-07T03:33:25.161Z,132.30
2018-11-07T03:34:25.120Z,90.10
2018-11-07T03:35:25.099Z,106.40
2018-11-07T03:36:25.048Z,106.10
2018-11-07T03:37:25.005Z,72.90
2018-11-07T03:38:24.964Z,78.60
2018-11-07T03:39:24.909Z,80.00
2018-11-07T03:40:24.882Z,78.90
2018-11-07T03:41:24.836Z,93.60
2018-11-07T03:42:24.788Z,75.30
2018-11-07T03:43:24.760Z,77.10
2018-11-07T03:44:24.714Z,86.10
2018-11-07T03:45:24.670Z,73.60
2018-11-07T03:46:24.635Z,82.10
2018-11-07T03:47:24.587Z,131.00
2018-11-07T03:48:24.557Z,96.80
2018-11-07T03:49:24.520Z,81.50
2018-11-07T03:50:24.461Z,86.60
2018-11-07T03:51:24.423Z,105.90
2018-11-07T03:52:24.394Z,89.10
2018-11-07T03:53:24.454Z,96.90
2018-11-07T03:54:24.321Z,96.40
2018-11-07T03:55:24.296Z,74.30
2018-11-07T03:56:24.225Z,68.20
2018-11-07T03:57:24.178Z,149.30
2018-11-07T03:58:24.153Z,82.50
2018-11-07T03:59:24.143Z,75.70
2018-11-07T04:00:24.063Z,74.10
2018-11-07T04:01:24.023Z,70.90
2018-11-07T04:02:23.987Z,64.60
2018-11-07T04:03:23.928Z,74.30
2018-11-07T04:04:23.896Z,65.30
2018-11-07T04:05:23.850Z,70.70
2018-11-07T04:06:23.816Z,63.70
2018-11-07T04:07:23.772Z,71.20
2018-11-07T04:08:23.737Z,64.70
2018-11-07T04:09:23.692Z,67.80
2018-11-07T04:10:23.643Z,68.00
2018-11-07T04:11:23.624Z,70.40
2018-11-07T04:12:23.583Z,72.20
2018-11-07T04:13:23.527Z,71.10
2018-11-07T04:14:23.487Z,70.10
2018-11-07T04:15:23.449Z,65.40
2018-11-07T04:16:23.413Z,64.90
2018-11-07T04:17:23.369Z,64.10
2018-11-07T04:18:23.331Z,79.20
2018-11-07T04:19:23.280Z,103.30
2018-11-07T04:20:23.245Z,91.20
2018-11-07T04:21:23.200Z,69.60
2018-11-07T04:22:23.173Z,80.40
2018-11-07T04:23:23.123Z,73.00
2018-11-07T04:24:23.067Z,107.90
2018-11-07T04:25:23.035Z,99.50
2018-11-07T04:26:22.998Z,90.10
2018-11-07T04:27:22.953Z,80.20
2018-11-07T04:28:22.904Z,92.70
2018-11-07T04:29:22.861Z,151.50
2018-11-07T04:30:22.837Z,76.40
2018-11-07T04:31:22.826Z,66.30
2018-11-07T04:32:22.790Z,103.50
2018-11-07T04:33:22.709Z,83.90
2018-11-07T04:34:22.671Z,89.80
2018-11-07T04:35:22.614Z,66.30
2018-11-07T04:36:22.581Z,82.00
2018-11-07T04:37:22.536Z,63.70
2018-11-07T04:38:22.498Z,96.80
2018-11-07T04:39:22.451Z,62.70
2018-11-07T04:40:22.420Z,68.60
2018-11-07T04:41:22.387Z,102.60
2018-11-07T04:42:22.336Z,89.40
2018-11-07T04:43:22.311Z,63.00
2018-11-07T04:44:22.245Z,67.90
2018-11-07T04:45:22.314Z,63.90
2018-11-07T04:46:22.166Z,65.50
2018-11-07T04:47:22.127Z,70.70
2018-11-07T04:48:22.097Z,91.80
2018-11-07T04:49:22.040Z,105.00
2018-11-07T04:50:22.003Z,59.70
2018-11-07T04:51:21.972Z,79.40
2018-11-07T04:52:21.931Z,81.00
2018-11-07T04:53:21.879Z,95.90
2018-11-07T04:54:21.840Z,88.70
2018-11-07T04:55:21.800Z,103.20
2018-11-07T04:56:21.753Z,73.90
2018-11-07T04:57:21.724Z,94.80
2018-11-07T04:58:21.675Z,86.60
2018-11-07T04:59:21.635Z,77.40
2018-11-07T05:00:21.685Z,71.00
2018-11-07T05:01:21.586Z,80.80
2018-11-07T05:02:21.527Z,68.90
2018-11-07T05:03:21.475Z,70.10
2018-11-07T05:04:21.432Z,67.20
2018-11-07T05:05:21.389Z,66.70
2018-11-07T05:06:21.369Z,75.90
2018-11-07T05:07:21.309Z,107.90
2018-11-07T05:08:21.283Z,86.90
2018-11-07T05:09:21.234Z,95.80
2018-11-07T05:10:21.185Z,108.70
2018-11-07T05:11:21.148Z,88.40
2018-11-07T05:12:21.130Z,76.80
2018-11-07T05:13:21.059Z,68.80
2018-11-07T05:14:21.021Z,93.20
2018-11-07T05:15:20.978Z,88.30
2018-11-07T05:16:20.961Z,77.20
2018-11-07T05:17:20.892Z,104.80
2018-11-07T05:18:20.861Z,70.40
2018-11-07T05:19:20.805Z,87.10
2018-11-07T05:20:20.781Z,62.60
2018-11-07T05:21:20.741Z,81.60
2018-11-07T05:22:20.697Z,88.00
2018-11-07T05:23:20.654Z,75.40
2018-11-07T05:24:20.610Z,65.60
2018-11-07T05:25:20.564Z,90.60
2018-11-07T05:26:20.619Z,89.60
2018-11-07T05:27:20.491Z,72.10
2018-11-07T05:28:20.445Z,78.70
2018-11-07T05:29:20.398Z,78.20
2018-11-07T05:30:20.349Z,71.60
2018-11-07T05:31:20.335Z,63.00
2018-11-07T05:32:20.291Z,93.40
2018-11-07T05:33:20.261Z,81.30
2018-11-07T05:34:20.196Z,88.10
2018-11-07T05:35:20.155Z,92.70
2018-11-07T05:36:20.115Z,117.10
2018-11-07T05:37:20.073Z,79.30
2018-11-07T05:38:20.031Z,77.10
2018-11-07T05:39:19.998Z,78.40
2018-11-07T05:40:19.957Z,58.30
2018-11-07T05:41:19.964Z,65.60
2018-11-07T05:42:19.873Z,69.80
2018-11-07T05:43:19.823Z,61.70
2018-11-07T05:44:19.808Z,67.50
2018-11-07T05:45:19.734Z,68.40
2018-11-07T05:46:19.694Z,70.00
2018-11-07T05:47:19.665Z,85.60
2018-11-07T05:48:19.632Z,81.10
2018-11-07T05:49:19.579Z,75.90
2018-11-07T05:50:19.551Z,68.70
2018-11-07T05:51:19.488Z,96.30
2018-11-07T05:52:19.458Z,89.70
2018-11-07T05:53:19.416Z,82.20
2018-11-07T05:54:19.378Z,78.10
2018-11-07T05:55:19.335Z,100.60
2018-11-07T05:56:19.311Z,94.40
2018-11-07T05:57:19.248Z,70.60
2018-11-07T05:58:19.197Z,78.10
2018-11-07T05:59:19.193Z,66.20
2018-11-07T06:00:19.119Z,78.70
2018-11-07T06:01:19.084Z,77.10
2018-11-07T06:02:19.045Z,75.90
2018-11-07T06:03:19.014Z,76.20
2018-11-07T06:04:18.956Z,68.00
2018-11-07T06:05:18.934Z,78.80
2018-11-07T06:06:18.869Z,75.70
2018-11-07T06:07:18.835Z,100.40
2018-11-07T06:08:18.803Z,116.20
2018-11-07T06:09:18.753Z,89.10
2018-11-07T06:10:18.714Z,101.00
2018-11-07T06:11:18.697Z,77.40
2018-11-07T06:12:18.629Z,84.00
2018-11-07T06:13:18.585Z,74.60
2018-11-07T06:14:18.547Z,86.40
2018-11-07T06:15:18.531Z,71.80
2018-11-07T06:16:18.507Z,63.50
2018-11-07T06:17:18.426Z,90.90
2018-11-07T06:18:18.368Z,73.30
2018-11-07T06:19:18.343Z,55.40
2018-11-07T06:20:18.302Z,52.30
2018-11-07T06:21:18.270Z,62.00
2018-11-07T06:22:18.275Z,54.20
2018-11-07T06:23:18.176Z,54.90
2018-11-07T06:24:18.241Z,55.90
2018-11-07T06:25:18.083Z,59.30
2018-11-07T06:26:18.039Z,66.10
2018-11-07T06:27:17.995Z,70.70
2018-11-07T06:28:17.961Z,65.60
2018-11-07T06:29:17.905Z,50.40
2018-11-07T06:30:17.877Z,70.50
2018-11-07T06:31:17.835Z,66.30
2018-11-07T06:32:17.781Z,78.80
2018-11-07T06:33:17.753Z,63.90
2018-11-07T06:34:17.726Z,69.60
2018-11-07T06:35:17.673Z,67.60
2018-11-07T06:36:17.626Z,56.50
2018-11-07T06:37:17.598Z,61.50
2018-11-07T06:38:17.554Z,54.50
2018-11-07T06:39:17.517Z,54.90
2018-11-07T06:40:17.468Z,71.10
2018-11-07T06:41:17.428Z,64.70
2018-11-07T06:42:17.377Z,66.30
2018-11-07T06:43:17.332Z,66.10
2018-11-07T06:44:17.291Z,74.70
2018-11-07T06:45:17.273Z,58.80
2018-11-07T06:46:17.210Z,59.40
2018-11-07T06:47:17.178Z,73.30
2018-11-07T06:48:17.158Z,67.10
2018-11-07T06:49:17.078Z,71.90
2018-11-07T06:50:17.053Z,56.90
2018-11-07T06:51:17.005Z,69.20
2018-11-07T06:52:16.962Z,78.70
2018-11-07T06:53:16.926Z,62.80
2018-11-07T06:54:16.876Z,63.00
2018-11-07T06:55:16.840Z,70.70
2018-11-07T06:56:16.793Z,67.60
2018-11-07T06:57:16.764Z,69.20
2018-11-07T06:58:16.724Z,76.60
2018-11-07T06:59:16.683Z,64.00
2018-11-07T07:00:16.638Z,82.70
2018-11-07T07:01:16.658Z,97.10
2018-11-07T07:02:16.548Z,75.80
2018-11-07T07:03:16.507Z,86.40
2018-11-07T07:04:16.577Z,65.90
2018-11-07T07:05:16.421Z,66.10
2018-11-07T07:06:16.392Z,67.60
2018-11-07T07:07:16.344Z,65.10
2018-11-07T07:08:16.307Z,61.60
2018-11-07T07:09:16.257Z,69.40
2018-11-07T07:10:16.238Z,61.50
2018-11-07T07:11:16.174Z,72.70
2018-11-07T07:12:16.211Z,80.60
2018-11-07T07:13:16.097Z,73.30
2018-11-07T07:14:16.056Z,66.70
2018-11-07T07:15:16.010Z,66.80
2018-11-07T07:16:15.967Z,81.10
2018-11-07T07:17:15.952Z,93.10
2018-11-07T07:18:15.972Z,93.50
2018-11-07T07:19:15.841Z,72.20
2018-11-07T07:20:15.807Z,83.10
2018-11-07T07:21:15.809Z,86.00
2018-11-07T07:22:15.761Z,88.90
2018-11-07T07:23:15.696Z,80.80
2018-11-07T07:24:15.634Z,66.10
2018-11-07T07:25:15.616Z,97.90
2018-11-07T07:26:15.559Z,62.10
2018-11-07T07:27:15.533Z,60.80
2018-11-07T07:28:15.469Z,69.00
2018-11-07T07:29:15.441Z,64.30
2018-11-07T07:30:15.407Z,65.30
2018-11-07T07:31:15.378Z,74.30
2018-11-07T07:32:15.313Z,68.50
2018-11-07T07:33:15.316Z,75.50
2018-11-07T07:34:15.252Z,62.70
2018-11-07T07:35:15.207Z,75.60
2018-11-07T07:36:15.157Z,72.80
2018-11-07T07:37:15.114Z,83.00
2018-11-07T07:38:15.085Z,83.80
2018-11-07T07:39:15.057Z,65.30
2018-11-07T07:40:14.985Z,64.00
2018-11-07T07:41:14.948Z,73.10
2018-11-07T07:42:14.912Z,72.20
2018-11-07T07:43:14.873Z,66.10
2018-11-07T07:44:14.823Z,81.20
2018-11-07T07:45:14.789Z,67.50
2018-11-07T07:46:14.758Z,91.80
2018-11-07T07:47:14.708Z,93.00
2018-11-07T07:48:14.681Z,57.90
2018-11-07T07:49:14.678Z,75.70
2018-11-07T07:50:14.587Z,73.90
2018-11-07T07:51:14.547Z,64.80
2018-11-07T07:52:14.578Z,70.20
2018-11-07T07:53:14.576Z,65.60
2018-11-07T07:54:14.445Z,62.30
2018-11-07T07:55:14.394Z,62.20
2018-11-07T07:56:14.361Z,61.10
2018-11-07T07:57:14.321Z,64.70
2018-11-07T07:58:14.285Z,72.00
2018-11-07T07:59:14.232Z,71.80
2018-11-07T08:00:14.201Z,65.80
2018-11-07T08:01:14.151Z,62.60
2018-11-07T08:02:14.109Z,68.00
2018-11-07T08:03:14.070Z,63.70
2018-11-07T08:04:14.057Z,66.00
2018-11-07T08:05:14.013Z,66.00
2018-11-07T08:06:13.967Z,63.60
2018-11-07T08:07:13.914Z,70.80
2018-11-07T08:08:13.875Z,55.40
2018-11-07T08:09:13.842Z,51.70
2018-11-07T08:10:13.811Z,50.10
2018-11-07T08:11:13.779Z,53.10
2018-11-07T08:12:13.733Z,55.30
2018-11-07T08:13:13.693Z,53.30
2018-11-07T08:14:13.665Z,48.60
2018-11-07T08:15:13.631Z,47.60
2018-11-07T08:16:13.586Z,47.60
2018-11-07T08:17:13.553Z,49.80
2018-11-07T08:18:13.513Z,44.70
2018-11-07T08:19:13.476Z,45.50
2018-11-07T08:20:13.446Z,45.30
2018-11-07T08:21:13.485Z,46.60
2018-11-07T08:22:13.371Z,41.40
2018-11-07T08:23:13.356Z,47.60
2018-11-07T08:24:13.310Z,42.40
2018-11-07T08:25:13.265Z,41.10
2018-11-07T08:26:13.222Z,38.00
2018-11-07T08:27:13.188Z,40.80
2018-11-07T08:28:13.171Z,36.80
2018-11-07T08:29:13.116Z,43.00
2018-11-07T08:30:13.074Z,39.60
2018-11-07T08:31:13.046Z,41.40
2018-11-07T08:32:13.003Z,38.70
2018-11-07T08:33:12.976Z,39.90
2018-11-07T08:34:12.936Z,41.50
2018-11-07T08:35:12.907Z,39.00
2018-11-07T08:36:12.866Z,36.50
2018-11-07T08:37:12.823Z,38.00
2018-11-07T08:38:12.800Z,39.50
2018-11-07T08:39:12.762Z,38.40
2018-11-07T08:40:12.734Z,39.90
2018-11-07T08:41:12.694Z,37.30
2018-11-07T08:42:12.728Z,38.20
2018-11-07T08:43:12.617Z,35.80
2018-11-07T08:44:12.589Z,38.70
2018-11-07T08:45:12.561Z,37.50
2018-11-07T08:46:12.515Z,37.40
2018-11-07T08:47:12.488Z,38.90
2018-11-07T08:48:12.472Z,37.70
2018-11-07T08:49:12.471Z,36.40
2018-11-07T08:50:12.378Z,37.70
2018-11-07T08:51:12.362Z,35.00
2018-11-07T08:52:12.333Z,32.50
2018-11-07T08:53:12.273Z,33.80
2018-11-07T08:54:12.250Z,35.70
2018-11-07T08:55:12.312Z,33.20
2018-11-07T08:56:12.174Z,32.70
2018-11-07T08:57:12.143Z,31.80
2018-11-07T08:58:12.113Z,33.20
2018-11-07T08:59:12.089Z,32.50
2018-11-07T09:00:12.048Z,32.30
2018-11-07T09:01:12.137Z,30.70
2018-11-07T09:02:12.057Z,30.70
2018-11-07T09:03:11.956Z,30.70
2018-11-07T09:04:11.933Z,31.60
2018-11-07T09:05:11.902Z,29.70
2018-11-07T09:06:11.867Z,28.50
2018-11-07T09:07:11.839Z,27.70
2018-11-07T09:08:11.810Z,27.90
2018-11-07T09:09:11.770Z,27.70
2018-11-07T09:10:11.739Z,26.10
2018-11-07T09:11:11.717Z,22.30
2018-11-07T09:12:11.784Z,24.30
2018-11-07T09:13:11.661Z,24.00
2018-11-07T09:14:11.615Z,23.80
2018-11-07T09:15:11.589Z,23.10
2018-11-07T09:16:11.564Z,23.50
2018-11-07T09:17:11.543Z,23.20
2018-11-07T09:18:11.497Z,22.20
2018-11-07T09:19:11.478Z,22.80
2018-11-07T09:20:11.456Z,22.20
2018-11-07T09:21:11.424Z,23.00
2018-11-07T09:22:11.395Z,21.70
2018-11-07T09:23:11.359Z,21.60
2018-11-07T09:24:11.387Z,21.60
2018-11-07T09:25:11.308Z,22.40
2018-11-07T09:26:11.294Z,20.90
2018-11-07T09:27:11.263Z,21.10
2018-11-07T09:28:11.231Z,21.10
2018-11-07T09:29:11.287Z,21.30
2018-11-07T09:30:11.188Z,19.70
2018-11-07T09:31:11.179Z,20.10
2018-11-07T09:32:11.126Z,20.20
2018-11-07T09:33:11.105Z,20.00
2018-11-07T09:34:11.074Z,19.50
2018-11-07T09:35:11.054Z,19.00
2018-11-07T09:36:11.012Z,19.10
2018-11-07T09:37:10.999Z,19.70
2018-11-07T09:38:10.976Z,20.30
2018-11-07T09:39:10.973Z,19.00
2018-11-07T09:40:10.936Z,19.50
2018-11-07T09:41:10.902Z,19.40
2018-11-07T09:42:10.870Z,18.80
2018-11-07T09:43:10.847Z,19.10
2018-11-07T09:44:10.814Z,19.30
2018-11-07T09:45:10.790Z,19.40
2018-11-07T09:46:10.785Z,17.10
2018-11-07T09:47:10.730Z,17.90
2018-11-07T09:48:10.777Z,18.40
2018-11-07T09:49:10.696Z,18.50
2018-11-07T09:50:10.661Z,17.90
2018-11-07T09:51:10.628Z,17.80
2018-11-07T09:52:10.614Z,17.40
2018-11-07T09:53:10.577Z,18.60
2018-11-07T09:54:10.604Z,18.20
2018-11-07T09:55:10.512Z,17.70
2018-11-07T09:56:10.508Z,17.60
2018-11-07T09:57:10.467Z,18.20
2018-11-07T09:58:10.454Z,18.10
2018-11-07T09:59:10.452Z,18.40
2018-11-07T10:00:10.403Z,18.40
2018-11-07T10:01:10.376Z,17.90
2018-11-07T10:02:10.339Z,18.00
2018-11-07T10:03:10.314Z,17.30
2018-11-07T10:04:10.280Z,16.20
2018-11-07T10:05:10.274Z,18.40
2018-11-07T10:06:10.255Z,18.60
2018-11-07T10:07:10.213Z,17.30
2018-11-07T10:08:10.174Z,17.80
2018-11-07T10:09:10.159Z,14.50
2018-11-07T10:10:10.124Z,16.90
2018-11-07T10:11:10.113Z,17.80
2018-11-07T10:12:10.087Z,17.70
2018-11-07T10:13:10.056Z,16.90
2018-11-07T10:14:10.004Z,16.50
2018-11-07T10:15:09.988Z,14.80
2018-11-07T10:16:09.960Z,17.00
2018-11-07T10:17:09.947Z,17.40
2018-11-07T10:18:09.902Z,14.80
2018-11-07T10:19:09.893Z,16.80
2018-11-07T10:20:09.855Z,17.60
2018-11-07T10:21:09.834Z,17.00
2018-11-07T10:22:09.812Z,15.90
2018-11-07T10:23:09.783Z,16.70
2018-11-07T10:24:09.747Z,16.90
2018-11-07T10:25:09.733Z,16.60
2018-11-07T10:26:09.727Z,16.80
2018-11-07T10:27:09.766Z,16.40
2018-11-07T10:28:10.133Z,17.00
2018-11-07T10:29:09.864Z,16.00
2018-11-07T10:30:09.692Z,16.20
2018-11-07T10:31:09.566Z,16.60
2018-11-07T10:32:09.558Z,15.90
2018-11-07T10:33:09.499Z,14.50
2018-11-07T10:34:09.489Z,15.90
2018-11-07T10:35:09.456Z,16.40
2018-11-07T10:36:09.451Z,15.90
2018-11-07T10:37:09.405Z,15.60
2018-11-07T10:38:09.507Z,16.30
2018-11-07T10:39:09.356Z,15.80
2018-11-07T10:40:09.329Z,16.30
2018-11-07T10:41:09.326Z,13.80
2018-11-07T10:42:09.274Z,12.00
2018-11-07T10:43:09.272Z,16.30
2018-11-07T10:44:09.246Z,16.30
2018-11-07T10:45:09.208Z,11.40
2018-11-07T10:46:09.230Z,11.40
2018-11-07T10:47:09.144Z,11.80
2018-11-07T10:48:09.108Z,14.60
2018-11-07T10:49:09.099Z,15.70
2018-11-07T10:50:09.063Z,16.10
2018-11-07T10:51:09.069Z,16.40
2018-11-07T10:52:09.039Z,17.70
2018-11-07T10:53:08.974Z,16.70
2018-11-07T10:54:08.954Z,17.30
2018-11-07T10:55:08.915Z,18.40
2018-11-07T10:56:08.886Z,18.10
2018-11-07T10:57:08.868Z,17.80
2018-11-07T10:58:08.845Z,17.10
2018-11-07T10:59:08.831Z,17.10
2018-11-07T11:00:08.784Z,17.70
2018-11-07T11:01:08.768Z,16.90
2018-11-07T11:02:08.731Z,16.80
2018-11-07T11:03:08.715Z,16.30
2018-11-07T11:04:08.694Z,16.00
2018-11-07T11:05:08.737Z,15.70
2018-11-07T11:06:08.640Z,16.80
2018-11-07T11:07:08.628Z,16.50
2018-11-07T11:08:08.593Z,16.20
2018-11-07T11:09:08.565Z,16.80
2018-11-07T11:10:08.522Z,16.40
2018-11-07T11:11:08.549Z,16.70
2018-11-07T11:12:08.475Z,16.40
2018-11-07T11:13:08.456Z,16.50
2018-11-07T11:14:08.434Z,16.20
2018-11-07T11:15:08.388Z,16.10
2018-11-07T11:16:08.386Z,16.20
2018-11-07T11:17:08.359Z,15.50
2018-11-07T11:18:08.309Z,16.20
2018-11-07T11:19:08.300Z,16.20
2018-11-07T11:20:08.265Z,16.50
2018-11-07T11:21:08.232Z,16.10
2018-11-07T11:22:08.210Z,15.90
2018-11-07T11:23:08.191Z,16.70
2018-11-07T11:24:08.155Z,15.40
2018-11-07T11:25:08.132Z,15.70
2018-11-07T11:26:08.112Z,15.50
2018-11-07T11:27:08.134Z,15.20
2018-11-07T11:28:08.088Z,16.60
2018-11-07T11:29:08.039Z,15.90
2018-11-07T11:30:07.993Z,16.00
2018-11-07T11:31:07.980Z,15.60
2018-11-07T11:32:07.946Z,16.10
2018-11-07T11:33:07.946Z,15.00
2018-11-07T11:34:08.106Z,14.60
2018-11-07T11:35:08.033Z,14.20
2018-11-07T11:36:07.846Z,15.60
2018-11-07T11:37:07.839Z,15.50
2018-11-07T11:38:07.819Z,15.50
2018-11-07T11:39:07.774Z,15.00
2018-11-07T11:40:07.809Z,14.50
2018-11-07T11:41:07.819Z,15.80
2018-11-07T11:42:07.694Z,14.90
2018-11-07T11:43:07.668Z,14.60
2018-11-07T11:44:07.627Z,15.00
2018-11-07T11:45:07.604Z,15.70
2018-11-07T11:46:07.583Z,15.40
2018-11-07T11:47:07.565Z,15.80
2018-11-07T11:48:07.528Z,15.80
2018-11-07T11:49:07.587Z,16.00
2018-11-07T11:50:07.477Z,15.60
2018-11-07T11:51:07.469Z,16.10
2018-11-07T11:52:07.431Z,15.40
2018-11-07T11:53:07.396Z,15.10
2018-11-07T11:54:07.381Z,15.20
2018-11-07T11:55:07.345Z,15.30
2018-11-07T11:56:07.314Z,14.90
2018-11-07T11:57:07.297Z,15.10
2018-11-07T11:58:07.264Z,15.90
2018-11-07T11:59:07.363Z,15.50
2018-11-07T12:00:07.538Z,15.60
2018-11-07T12:01:07.189Z,15.80
2018-11-07T12:02:07.212Z,16.50
2018-11-07T12:03:07.158Z,16.90
2018-11-07T12:04:07.111Z,16.30
2018-11-07T12:05:07.093Z,15.90
2018-11-07T12:06:07.091Z,15.80
2018-11-07T12:07:07.060Z,15.70
2018-11-07T12:08:07.059Z,15.90
2018-11-07T12:09:07.032Z,15.40
2018-11-07T12:10:06.986Z,15.40
2018-11-07T12:11:06.943Z,15.80
2018-11-07T12:12:06.978Z,16.40
2018-11-07T12:13:06.934Z,15.90
2018-11-07T12:14:06.888Z,16.20
2018-11-07T12:15:06.883Z,15.50
2018-11-07T12:16:06.810Z,16.00
2018-11-07T12:17:06.804Z,15.70
2018-11-07T12:18:06.765Z,15.50
2018-11-07T12:19:06.735Z,14.00
2018-11-07T12:20:06.760Z,15.80
2018-11-07T12:21:06.699Z,15.60
2018-11-07T12:22:06.658Z,15.50
2018-11-07T12:23:06.631Z,15.10
2018-11-07T12:24:06.610Z,15.20
2018-11-07T12:25:06.604Z,13.80
2018-11-07T12:26:06.557Z,14.10
2018-11-07T12:27:06.532Z,14.80
2018-11-07T12:28:06.513Z,15.10
2018-11-07T12:29:06.479Z,14.40
2018-11-07T12:30:06.462Z,14.80
2018-11-07T12:31:06.435Z,14.90
2018-11-07T12:32:06.393Z,15.80
2018-11-07T12:33:06.393Z,14.80
2018-11-07T12:34:06.353Z,14.20
2018-11-07T12:35:06.321Z,14.90
2018-11-07T12:36:06.297Z,14.60
2018-11-07T12:37:06.329Z,12.90
2018-11-07T12:38:06.260Z,13.50
2018-11-07T12:39:06.217Z,13.80
2018-11-07T12:40:06.214Z,13.30
2018-11-07T12:41:06.167Z,12.70
2018-11-07T12:42:06.159Z,12.60
2018-11-07T12:43:06.117Z,12.80
2018-11-07T12:44:06.074Z,12.90
2018-11-07T12:45:06.054Z,13.70
2018-11-07T12:46:06.029Z,13.20
2018-11-07T12:47:06.014Z,13.20
2018-11-07T12:48:05.969Z,13.20
2018-11-07T12:49:05.938Z,13.00
2018-11-07T12:50:05.993Z,13.90